sensor_id;sensor_type;location;lat;lon;timestamp;temperature;humidity
65378;SHT31;51982;51.042;13.806;2022-11-20T00:01:20;0.07;78.52
65378;SHT31;51982;51.042;13.806;2022-11-20T00:03:45;0.04;78.43
65378;SHT31;51982;51.042;13.806;2022-11-20T00:06:13;0.04;78.57
65378;SHT31;51982;51.042;13.806;2022-11-20T00:08:39;0.00;78.40
65378;SHT31;51982;51.042;13.806;2022-11-20T00:11:09;0.03;78.39
65378;SHT31;51982;51.042;13.806;2022-11-20T00:13:34;-0.02;78.11
65378;SHT31;51982;51.042;13.806;2022-11-20T00:16:02;-0.04;78.02
65378;SHT31;51982;51.042;13.806;2022-11-20T00:18:28;-0.06;78.18
65378;SHT31;51982;51.042;13.806;2022-11-20T00:20:59;-0.04;78.39
65378;SHT31;51982;51.042;13.806;2022-11-20T00:23:25;-0.11;78.21
65378;SHT31;51982;51.042;13.806;2022-11-20T00:25:50;-0.18;78.31
65378;SHT31;51982;51.042;13.806;2022-11-20T00:28:15;-0.17;78.48
65378;SHT31;51982;51.042;13.806;2022-11-20T00:30:40;-0.24;78.55
65378;SHT31;51982;51.042;13.806;2022-11-20T00:33:06;-0.25;78.92
65378;SHT31;51982;51.042;13.806;2022-11-20T00:35:31;-0.18;78.68
65378;SHT31;51982;51.042;13.806;2022-11-20T00:37:56;-0.25;78.82
65378;SHT31;51982;51.042;13.806;2022-11-20T00:40:21;-0.20;78.75
65378;SHT31;51982;51.042;13.806;2022-11-20T00:42:47;-0.21;78.73
65378;SHT31;51982;51.042;13.806;2022-11-20T00:45:12;-0.21;78.69
65378;SHT31;51982;51.042;13.806;2022-11-20T00:47:37;-0.21;78.41
65378;SHT31;51982;51.042;13.806;2022-11-20T00:50:03;-0.18;78.35
65378;SHT31;51982;51.042;13.806;2022-11-20T00:52:28;-0.15;78.23
65378;SHT31;51982;51.042;13.806;2022-11-20T00:54:53;-0.17;78.19
65378;SHT31;51982;51.042;13.806;2022-11-20T00:57:18;-0.15;78.15
65378;SHT31;51982;51.042;13.806;2022-11-20T00:59:44;-0.17;78.04
65378;SHT31;51982;51.042;13.806;2022-11-20T01:02:09;-0.18;78.06
65378;SHT31;51982;51.042;13.806;2022-11-20T01:04:34;-0.20;77.84
65378;SHT31;51982;51.042;13.806;2022-11-20T01:07:00;-0.20;77.93
65378;SHT31;51982;51.042;13.806;2022-11-20T01:09:25;-0.23;77.86
65378;SHT31;51982;51.042;13.806;2022-11-20T01:11:50;-0.23;77.90
65378;SHT31;51982;51.042;13.806;2022-11-20T01:14:18;-0.23;77.94
65378;SHT31;51982;51.042;13.806;2022-11-20T01:16:46;-0.28;77.82
65378;SHT31;51982;51.042;13.806;2022-11-20T01:19:16;-0.25;77.95
65378;SHT31;51982;51.042;13.806;2022-11-20T01:21:42;-0.27;78.04
65378;SHT31;51982;51.042;13.806;2022-11-20T01:24:11;-0.28;77.92
65378;SHT31;51982;51.042;13.806;2022-11-20T01:26:39;-0.28;78.06
65378;SHT31;51982;51.042;13.806;2022-11-20T01:29:06;-0.30;78.09
65378;SHT31;51982;51.042;13.806;2022-11-20T01:31:36;-0.30;78.14
65378;SHT31;51982;51.042;13.806;2022-11-20T01:34:04;-0.27;78.23
65378;SHT31;51982;51.042;13.806;2022-11-20T01:36:31;-0.30;78.15
65378;SHT31;51982;51.042;13.806;2022-11-20T01:39:00;-0.31;78.13
65378;SHT31;51982;51.042;13.806;2022-11-20T01:41:27;-0.30;78.08
65378;SHT31;51982;51.042;13.806;2022-11-20T01:44:13;-0.35;78.11
65378;SHT31;51982;51.042;13.806;2022-11-20T01:46:44;-0.30;78.23
65378;SHT31;51982;51.042;13.806;2022-11-20T01:49:20;-0.28;78.20
65378;SHT31;51982;51.042;13.806;2022-11-20T01:51:52;-0.31;78.10
65378;SHT31;51982;51.042;13.806;2022-11-20T01:54:26;-0.31;78.07
65378;SHT31;51982;51.042;13.806;2022-11-20T01:56:57;-0.31;78.12
65378;SHT31;51982;51.042;13.806;2022-11-20T01:59:25;-0.33;78.12
65378;SHT31;51982;51.042;13.806;2022-11-20T02:01:51;-0.31;77.88
65378;SHT31;51982;51.042;13.806;2022-11-20T02:04:16;-0.30;78.04
65378;SHT31;51982;51.042;13.806;2022-11-20T02:06:48;-0.31;78.02
65378;SHT31;51982;51.042;13.806;2022-11-20T02:09:15;-0.31;78.09
65378;SHT31;51982;51.042;13.806;2022-11-20T02:11:40;-0.33;78.08
65378;SHT31;51982;51.042;13.806;2022-11-20T02:14:06;-0.34;77.99
65378;SHT31;51982;51.042;13.806;2022-11-20T02:16:45;-0.40;77.86
65378;SHT31;51982;51.042;13.806;2022-11-20T02:19:31;-0.40;77.97
65378;SHT31;51982;51.042;13.806;2022-11-20T02:22:28;-0.45;77.85
65378;SHT31;51982;51.042;13.806;2022-11-20T02:24:54;-0.41;77.88
65378;SHT31;51982;51.042;13.806;2022-11-20T02:27:20;-0.47;77.89
65378;SHT31;51982;51.042;13.806;2022-11-20T02:29:53;-0.45;78.01
65378;SHT31;51982;51.042;13.806;2022-11-20T02:32:24;-0.51;77.97
65378;SHT31;51982;51.042;13.806;2022-11-20T02:34:50;-0.48;78.20
65378;SHT31;51982;51.042;13.806;2022-11-20T02:37:16;-0.50;78.04
65378;SHT31;51982;51.042;13.806;2022-11-20T02:39:44;-0.47;78.01
65378;SHT31;51982;51.042;13.806;2022-11-20T02:42:10;-0.47;77.89
65378;SHT31;51982;51.042;13.806;2022-11-20T02:44:36;-0.47;77.87
65378;SHT31;51982;51.042;13.806;2022-11-20T02:47:01;-0.47;77.82
65378;SHT31;51982;51.042;13.806;2022-11-20T02:49:27;-0.53;77.74
65378;SHT31;51982;51.042;13.806;2022-11-20T02:51:52;-0.47;77.93
65378;SHT31;51982;51.042;13.806;2022-11-20T02:54:17;-0.50;77.71
65378;SHT31;51982;51.042;13.806;2022-11-20T02:56:43;-0.50;77.95
65378;SHT31;51982;51.042;13.806;2022-11-20T02:59:08;-0.51;77.66
65378;SHT31;51982;51.042;13.806;2022-11-20T03:01:34;-0.55;77.55
65378;SHT31;51982;51.042;13.806;2022-11-20T03:03:59;-0.64;77.40
65378;SHT31;51982;51.042;13.806;2022-11-20T03:06:24;-0.71;77.56
65378;SHT31;51982;51.042;13.806;2022-11-20T03:08:50;-0.72;77.83
65378;SHT31;51982;51.042;13.806;2022-11-20T03:11:15;-0.82;77.98
65378;SHT31;51982;51.042;13.806;2022-11-20T03:13:40;-0.82;78.22
65378;SHT31;51982;51.042;13.806;2022-11-20T03:16:07;-0.89;78.35
65378;SHT31;51982;51.042;13.806;2022-11-20T03:18:33;-0.86;78.44
65378;SHT31;51982;51.042;13.806;2022-11-20T03:20:58;-0.84;78.59
65378;SHT31;51982;51.042;13.806;2022-11-20T03:23:24;-0.85;78.54
65378;SHT31;51982;51.042;13.806;2022-11-20T03:25:49;-0.85;78.61
65378;SHT31;51982;51.042;13.806;2022-11-20T03:28:15;-0.89;78.72
65378;SHT31;51982;51.042;13.806;2022-11-20T03:30:40;-0.88;78.93
65378;SHT31;51982;51.042;13.806;2022-11-20T03:33:05;-0.82;78.67
65378;SHT31;51982;51.042;13.806;2022-11-20T03:35:31;-0.79;78.68
65378;SHT31;51982;51.042;13.806;2022-11-20T03:37:57;-0.85;78.77
65378;SHT31;51982;51.042;13.806;2022-11-20T03:40:22;-0.92;78.92
65378;SHT31;51982;51.042;13.806;2022-11-20T03:42:47;-0.99;79.16
65378;SHT31;51982;51.042;13.806;2022-11-20T03:45:15;-0.96;79.06
65378;SHT31;51982;51.042;13.806;2022-11-20T03:47:41;-0.89;78.86
65378;SHT31;51982;51.042;13.806;2022-11-20T03:50:07;-0.89;78.68
65378;SHT31;51982;51.042;13.806;2022-11-20T03:52:33;-0.92;78.66
65378;SHT31;51982;51.042;13.806;2022-11-20T03:54:58;-0.85;78.54
65378;SHT31;51982;51.042;13.806;2022-11-20T03:57:23;-0.91;78.16
65378;SHT31;51982;51.042;13.806;2022-11-20T03:59:49;-0.89;78.19
65378;SHT31;51982;51.042;13.806;2022-11-20T04:02:14;-0.95;77.66
65378;SHT31;51982;51.042;13.806;2022-11-20T04:04:39;-0.98;77.88
65378;SHT31;51982;51.042;13.806;2022-11-20T04:07:04;-0.95;77.56
65378;SHT31;51982;51.042;13.806;2022-11-20T04:09:30;-0.96;77.41
65378;SHT31;51982;51.042;13.806;2022-11-20T04:11:55;-0.95;77.54
65378;SHT31;51982;51.042;13.806;2022-11-20T04:14:20;-0.98;77.60
65378;SHT31;51982;51.042;13.806;2022-11-20T04:16:46;-0.93;77.54
65378;SHT31;51982;51.042;13.806;2022-11-20T04:19:13;-0.96;77.36
65378;SHT31;51982;51.042;13.806;2022-11-20T04:21:39;-0.96;77.39
65378;SHT31;51982;51.042;13.806;2022-11-20T04:24:06;-0.98;77.33
65378;SHT31;51982;51.042;13.806;2022-11-20T04:26:32;-0.93;77.65
65378;SHT31;51982;51.042;13.806;2022-11-20T04:28:58;-0.96;77.45
65378;SHT31;51982;51.042;13.806;2022-11-20T04:31:25;-0.92;77.69
65378;SHT31;51982;51.042;13.806;2022-11-20T04:33:51;-0.95;77.70
65378;SHT31;51982;51.042;13.806;2022-11-20T04:36:24;-0.99;77.74
65378;SHT31;51982;51.042;13.806;2022-11-20T04:38:54;-0.99;77.58
65378;SHT31;51982;51.042;13.806;2022-11-20T04:41:21;-0.98;77.49
65378;SHT31;51982;51.042;13.806;2022-11-20T04:43:50;-1.00;77.29
65378;SHT31;51982;51.042;13.806;2022-11-20T04:46:18;-0.98;77.39
65378;SHT31;51982;51.042;13.806;2022-11-20T04:48:44;-0.96;77.34
65378;SHT31;51982;51.042;13.806;2022-11-20T04:51:09;-1.00;76.96
65378;SHT31;51982;51.042;13.806;2022-11-20T04:53:35;-1.00;77.18
65378;SHT31;51982;51.042;13.806;2022-11-20T04:56:04;-1.06;76.89
65378;SHT31;51982;51.042;13.806;2022-11-20T04:58:30;-1.05;77.00
65378;SHT31;51982;51.042;13.806;2022-11-20T05:01:02;-1.07;77.09
65378;SHT31;51982;51.042;13.806;2022-11-20T05:03:28;-1.07;77.05
65378;SHT31;51982;51.042;13.806;2022-11-20T05:05:53;-1.09;77.11
65378;SHT31;51982;51.042;13.806;2022-11-20T05:08:18;-1.15;77.14
65378;SHT31;51982;51.042;13.806;2022-11-20T05:10:44;-1.12;77.25
65378;SHT31;51982;51.042;13.806;2022-11-20T05:13:09;-1.12;77.28
65378;SHT31;51982;51.042;13.806;2022-11-20T05:15:34;-1.10;77.34
65378;SHT31;51982;51.042;13.806;2022-11-20T05:17:59;-1.09;77.39
65378;SHT31;51982;51.042;13.806;2022-11-20T05:20:25;-1.13;77.23
65378;SHT31;51982;51.042;13.806;2022-11-20T05:22:50;-1.16;77.24
65378;SHT31;51982;51.042;13.806;2022-11-20T05:25:15;-1.23;77.29
65378;SHT31;51982;51.042;13.806;2022-11-20T05:27:41;-1.23;77.58
65378;SHT31;51982;51.042;13.806;2022-11-20T05:30:06;-1.20;77.79
65378;SHT31;51982;51.042;13.806;2022-11-20T05:32:32;-1.21;77.71
65378;SHT31;51982;51.042;13.806;2022-11-20T05:34:57;-1.19;77.75
65378;SHT31;51982;51.042;13.806;2022-11-20T05:37:23;-1.21;77.51
65378;SHT31;51982;51.042;13.806;2022-11-20T05:39:49;-1.21;77.49
65378;SHT31;51982;51.042;13.806;2022-11-20T05:42:14;-1.21;77.47
65378;SHT31;51982;51.042;13.806;2022-11-20T05:47:23;-1.19;77.80
65378;SHT31;51982;51.042;13.806;2022-11-20T05:49:48;-1.20;77.68
65378;SHT31;51982;51.042;13.806;2022-11-20T05:52:14;-1.21;77.62
65378;SHT31;51982;51.042;13.806;2022-11-20T05:54:39;-1.21;77.72
65378;SHT31;51982;51.042;13.806;2022-11-20T05:57:04;-1.19;77.65
65378;SHT31;51982;51.042;13.806;2022-11-20T05:59:30;-1.19;77.67
65378;SHT31;51982;51.042;13.806;2022-11-20T06:01:55;-1.17;77.64
65378;SHT31;51982;51.042;13.806;2022-11-20T06:04:20;-1.16;77.47
65378;SHT31;51982;51.042;13.806;2022-11-20T06:06:45;-1.19;77.48
65378;SHT31;51982;51.042;13.806;2022-11-20T06:09:11;-1.13;77.51
65378;SHT31;51982;51.042;13.806;2022-11-20T06:11:36;-1.15;77.26
65378;SHT31;51982;51.042;13.806;2022-11-20T06:14:01;-1.17;77.14
65378;SHT31;51982;51.042;13.806;2022-11-20T06:16:26;-1.20;77.19
65378;SHT31;51982;51.042;13.806;2022-11-20T06:18:52;-1.15;77.14
65378;SHT31;51982;51.042;13.806;2022-11-20T06:21:19;-1.21;77.19
65378;SHT31;51982;51.042;13.806;2022-11-20T06:23:45;-1.25;77.11
65378;SHT31;51982;51.042;13.806;2022-11-20T06:26:13;-1.29;77.23
65378;SHT31;51982;51.042;13.806;2022-11-20T06:28:38;-1.25;77.56
65378;SHT31;51982;51.042;13.806;2022-11-20T06:31:05;-1.21;77.54
65378;SHT31;51982;51.042;13.806;2022-11-20T06:33:30;-1.32;77.48
65378;SHT31;51982;51.042;13.806;2022-11-20T06:35:57;-1.33;77.79
65378;SHT31;51982;51.042;13.806;2022-11-20T06:38:22;-1.40;77.88
65378;SHT31;51982;51.042;13.806;2022-11-20T06:40:47;-1.35;77.95
65378;SHT31;51982;51.042;13.806;2022-11-20T06:43:13;-1.30;77.95
65378;SHT31;51982;51.042;13.806;2022-11-20T06:45:38;-1.25;77.79
65378;SHT31;51982;51.042;13.806;2022-11-20T06:48:03;-1.20;77.69
65378;SHT31;51982;51.042;13.806;2022-11-20T06:50:29;-1.19;77.52
65378;SHT31;51982;51.042;13.806;2022-11-20T06:52:54;-1.16;77.56
65378;SHT31;51982;51.042;13.806;2022-11-20T06:55:19;-1.17;77.38
65378;SHT31;51982;51.042;13.806;2022-11-20T06:57:45;-1.15;77.42
65378;SHT31;51982;51.042;13.806;2022-11-20T07:00:11;-1.13;77.67
65378;SHT31;51982;51.042;13.806;2022-11-20T07:02:36;-1.13;77.63
65378;SHT31;51982;51.042;13.806;2022-11-20T07:05:01;-1.19;77.53
65378;SHT31;51982;51.042;13.806;2022-11-20T07:07:27;-1.20;77.93
65378;SHT31;51982;51.042;13.806;2022-11-20T07:09:52;-1.16;78.03
65378;SHT31;51982;51.042;13.806;2022-11-20T07:12:17;-1.10;77.86
65378;SHT31;51982;51.042;13.806;2022-11-20T07:14:42;-1.05;77.79
65378;SHT31;51982;51.042;13.806;2022-11-20T07:17:08;-0.98;77.87
65378;SHT31;51982;51.042;13.806;2022-11-20T07:19:33;-0.95;77.83
65378;SHT31;51982;51.042;13.806;2022-11-20T07:21:58;-0.88;78.02
65378;SHT31;51982;51.042;13.806;2022-11-20T07:24:23;-0.86;77.91
65378;SHT31;51982;51.042;13.806;2022-11-20T07:26:49;-0.85;77.85
65378;SHT31;51982;51.042;13.806;2022-11-20T07:29:15;-0.86;77.98
65378;SHT31;51982;51.042;13.806;2022-11-20T07:31:41;-0.84;78.00
65378;SHT31;51982;51.042;13.806;2022-11-20T07:34:06;-0.81;77.97
65378;SHT31;51982;51.042;13.806;2022-11-20T07:36:31;-0.69;78.05
65378;SHT31;51982;51.042;13.806;2022-11-20T07:38:57;-0.69;78.00
65378;SHT31;51982;51.042;13.806;2022-11-20T07:41:22;-0.71;78.05
65378;SHT31;51982;51.042;13.806;2022-11-20T07:43:47;-0.66;78.08
65378;SHT31;51982;51.042;13.806;2022-11-20T07:46:12;-0.68;78.27
65378;SHT31;51982;51.042;13.806;2022-11-20T07:48:38;-0.68;78.35
65378;SHT31;51982;51.042;13.806;2022-11-20T07:51:03;-0.61;78.42
65378;SHT31;51982;51.042;13.806;2022-11-20T07:53:28;-0.57;78.28
65378;SHT31;51982;51.042;13.806;2022-11-20T07:55:54;-0.53;78.47
65378;SHT31;51982;51.042;13.806;2022-11-20T07:58:20;-0.57;78.32
65378;SHT31;51982;51.042;13.806;2022-11-20T08:00:46;-0.55;78.48
65378;SHT31;51982;51.042;13.806;2022-11-20T08:03:11;-0.53;78.48
65378;SHT31;51982;51.042;13.806;2022-11-20T08:05:38;-0.45;78.62
65378;SHT31;51982;51.042;13.806;2022-11-20T08:08:03;-0.45;78.50
65378;SHT31;51982;51.042;13.806;2022-11-20T08:10:28;-0.41;78.45
65378;SHT31;51982;51.042;13.806;2022-11-20T08:12:54;-0.40;78.79
65378;SHT31;51982;51.042;13.806;2022-11-20T08:15:39;-0.31;79.25
65378;SHT31;51982;51.042;13.806;2022-11-20T08:18:10;-0.27;78.92
65378;SHT31;51982;51.042;13.806;2022-11-20T08:20:46;-0.20;78.85
65378;SHT31;51982;51.042;13.806;2022-11-20T08:23:11;-0.13;79.08
65378;SHT31;51982;51.042;13.806;2022-11-20T08:25:37;-0.07;78.92
65378;SHT31;51982;51.042;13.806;2022-11-20T08:28:05;-0.07;78.80
65378;SHT31;51982;51.042;13.806;2022-11-20T08:30:32;-0.11;78.89
65378;SHT31;51982;51.042;13.806;2022-11-20T08:33:02;-0.06;79.04
65378;SHT31;51982;51.042;13.806;2022-11-20T08:35:28;0.00;78.94
65378;SHT31;51982;51.042;13.806;2022-11-20T08:37:53;0.01;79.28
65378;SHT31;51982;51.042;13.806;2022-11-20T08:40:19;0.06;79.14
65378;SHT31;51982;51.042;13.806;2022-11-20T08:42:48;0.06;78.93
65378;SHT31;51982;51.042;13.806;2022-11-20T08:45:13;0.04;79.07
65378;SHT31;51982;51.042;13.806;2022-11-20T08:47:39;0.14;79.19
65378;SHT31;51982;51.042;13.806;2022-11-20T08:50:04;0.20;79.15
65378;SHT31;51982;51.042;13.806;2022-11-20T08:52:29;0.24;79.00
65378;SHT31;51982;51.042;13.806;2022-11-20T08:54:57;0.27;79.02
65378;SHT31;51982;51.042;13.806;2022-11-20T08:57:22;0.28;79.26
65378;SHT31;51982;51.042;13.806;2022-11-20T08:59:48;0.32;79.30
65378;SHT31;51982;51.042;13.806;2022-11-20T09:02:13;0.38;79.14
65378;SHT31;51982;51.042;13.806;2022-11-20T09:04:39;0.42;80.73
65378;SHT31;51982;51.042;13.806;2022-11-20T09:07:04;0.44;81.55
65378;SHT31;51982;51.042;13.806;2022-11-20T09:09:29;0.58;83.16
65378;SHT31;51982;51.042;13.806;2022-11-20T09:11:54;0.61;79.93
65378;SHT31;51982;51.042;13.806;2022-11-20T09:14:20;0.71;82.72
65378;SHT31;51982;51.042;13.806;2022-11-20T09:16:46;0.79;82.59
65378;SHT31;51982;51.042;13.806;2022-11-20T09:19:11;0.79;80.50
65378;SHT31;51982;51.042;13.806;2022-11-20T09:21:37;0.86;79.46
65378;SHT31;51982;51.042;13.806;2022-11-20T09:24:02;0.88;79.14
65378;SHT31;51982;51.042;13.806;2022-11-20T09:26:28;0.83;78.27
65378;SHT31;51982;51.042;13.806;2022-11-20T09:28:53;0.85;78.19
65378;SHT31;51982;51.042;13.806;2022-11-20T09:31:23;0.89;78.52
65378;SHT31;51982;51.042;13.806;2022-11-20T09:33:49;0.96;78.20
65378;SHT31;51982;51.042;13.806;2022-11-20T09:36:14;1.00;78.36
65378;SHT31;51982;51.042;13.806;2022-11-20T09:38:41;1.04;78.52
65378;SHT31;51982;51.042;13.806;2022-11-20T09:41:10;1.09;78.14
65378;SHT31;51982;51.042;13.806;2022-11-20T09:44:04;1.07;78.12
65378;SHT31;51982;51.042;13.806;2022-11-20T09:52:26;1.22;76.51
65378;SHT31;51982;51.042;13.806;2022-11-20T09:54:56;1.29;75.58
65378;SHT31;51982;51.042;13.806;2022-11-20T09:57:37;1.29;75.39
65378;SHT31;51982;51.042;13.806;2022-11-20T10:00:05;1.36;75.58
65378;SHT31;51982;51.042;13.806;2022-11-20T10:02:42;1.40;76.21
65378;SHT31;51982;51.042;13.806;2022-11-20T10:05:22;1.39;76.45
65378;SHT31;51982;51.042;13.806;2022-11-20T10:08:00;1.44;75.98
65378;SHT31;51982;51.042;13.806;2022-11-20T10:13:23;1.46;75.72
65378;SHT31;51982;51.042;13.806;2022-11-20T10:16:03;1.57;75.99
65378;SHT31;51982;51.042;13.806;2022-11-20T10:21:30;1.57;74.72
65378;SHT31;51982;51.042;13.806;2022-11-20T10:24:29;1.64;74.85
65378;SHT31;51982;51.042;13.806;2022-11-20T10:27:34;1.68;74.02
65378;SHT31;51982;51.042;13.806;2022-11-20T10:30:12;1.70;74.11
65378;SHT31;51982;51.042;13.806;2022-11-20T10:32:46;1.73;73.49
65378;SHT31;51982;51.042;13.806;2022-11-20T10:38:00;1.81;74.03
65378;SHT31;51982;51.042;13.806;2022-11-20T10:40:34;1.89;74.50
65378;SHT31;51982;51.042;13.806;2022-11-20T10:43:03;1.94;74.64
65378;SHT31;51982;51.042;13.806;2022-11-20T10:46:12;1.98;74.26
65378;SHT31;51982;51.042;13.806;2022-11-20T10:48:40;2.05;74.04
65378;SHT31;51982;51.042;13.806;2022-11-20T10:51:29;2.18;74.19
65378;SHT31;51982;51.042;13.806;2022-11-20T10:54:02;2.36;73.93
65378;SHT31;51982;51.042;13.806;2022-11-20T10:56:38;2.50;73.07
65378;SHT31;51982;51.042;13.806;2022-11-20T10:59:32;2.57;73.21
65378;SHT31;51982;51.042;13.806;2022-11-20T11:01:58;2.63;73.32
65378;SHT31;51982;51.042;13.806;2022-11-20T11:09:35;2.63;74.28
65378;SHT31;51982;51.042;13.806;2022-11-20T11:12:06;2.64;74.46
65378;SHT31;51982;51.042;13.806;2022-11-20T11:14:42;2.66;74.88
65378;SHT31;51982;51.042;13.806;2022-11-20T11:17:20;2.67;74.76
65378;SHT31;51982;51.042;13.806;2022-11-20T11:19:45;2.72;74.44
65378;SHT31;51982;51.042;13.806;2022-11-20T11:22:16;2.76;74.47
65378;SHT31;51982;51.042;13.806;2022-11-20T11:24:51;2.87;74.58
65378;SHT31;51982;51.042;13.806;2022-11-20T11:27:17;2.98;74.13
65378;SHT31;51982;51.042;13.806;2022-11-20T11:29:43;3.04;74.25
65378;SHT31;51982;51.042;13.806;2022-11-20T11:32:15;3.05;74.38
65378;SHT31;51982;51.042;13.806;2022-11-20T11:34:42;3.05;73.71
65378;SHT31;51982;51.042;13.806;2022-11-20T11:37:16;3.11;74.57
65378;SHT31;51982;51.042;13.806;2022-11-20T11:39:43;3.11;74.40
65378;SHT31;51982;51.042;13.806;2022-11-20T11:42:13;3.12;74.88
65378;SHT31;51982;51.042;13.806;2022-11-20T11:44:44;3.20;74.71
65378;SHT31;51982;51.042;13.806;2022-11-20T11:47:46;3.22;74.59
65378;SHT31;51982;51.042;13.806;2022-11-20T11:55:31;3.45;74.54
65378;SHT31;51982;51.042;13.806;2022-11-20T12:00:51;3.61;73.93
65378;SHT31;51982;51.042;13.806;2022-11-20T12:03:28;3.65;74.43
65378;SHT31;51982;51.042;13.806;2022-11-20T12:05:58;3.63;74.48
65378;SHT31;51982;51.042;13.806;2022-11-20T12:08:32;3.65;74.79
65378;SHT31;51982;51.042;13.806;2022-11-20T12:16:03;3.54;75.25
65378;SHT31;51982;51.042;13.806;2022-11-20T12:18:29;3.59;75.52
65378;SHT31;51982;51.042;13.806;2022-11-20T12:24:21;3.63;75.66
65378;SHT31;51982;51.042;13.806;2022-11-20T12:30:01;3.56;75.65
65378;SHT31;51982;51.042;13.806;2022-11-20T12:40:28;3.30;76.68
65378;SHT31;51982;51.042;13.806;2022-11-20T12:49:31;3.31;77.14
65378;SHT31;51982;51.042;13.806;2022-11-20T12:52:37;3.32;76.88
65378;SHT31;51982;51.042;13.806;2022-11-20T12:55:13;3.39;77.11
65378;SHT31;51982;51.042;13.806;2022-11-20T12:57:51;3.54;76.97
65378;SHT31;51982;51.042;13.806;2022-11-20T13:00:20;3.56;76.79
65378;SHT31;51982;51.042;13.806;2022-11-20T13:03:02;3.52;76.94
65378;SHT31;51982;51.042;13.806;2022-11-20T13:08:55;3.65;76.98
65378;SHT31;51982;51.042;13.806;2022-11-20T13:14:17;3.58;76.98
65378;SHT31;51982;51.042;13.806;2022-11-20T13:17:05;3.63;77.17
65378;SHT31;51982;51.042;13.806;2022-11-20T13:19:35;3.69;77.22
65378;SHT31;51982;51.042;13.806;2022-11-20T13:22:01;3.69;76.96
65378;SHT31;51982;51.042;13.806;2022-11-20T13:24:29;3.73;77.15
65378;SHT31;51982;51.042;13.806;2022-11-20T13:29:35;3.82;77.26
65378;SHT31;51982;51.042;13.806;2022-11-20T13:34:29;3.82;77.64
65378;SHT31;51982;51.042;13.806;2022-11-20T13:36:56;3.85;77.51
65378;SHT31;51982;51.042;13.806;2022-11-20T13:39:34;3.90;77.54
65378;SHT31;51982;51.042;13.806;2022-11-20T13:42:54;3.89;77.51
65378;SHT31;51982;51.042;13.806;2022-11-20T13:44:53;3.90;77.47
65378;SHT31;51982;51.042;13.806;2022-11-20T13:47:24;3.89;77.40
65378;SHT31;51982;51.042;13.806;2022-11-20T13:49:51;3.93;77.65
65378;SHT31;51982;51.042;13.806;2022-11-20T13:52:54;3.89;77.32
65378;SHT31;51982;51.042;13.806;2022-11-20T13:55:31;3.86;77.37
65378;SHT31;51982;51.042;13.806;2022-11-20T13:58:21;3.83;77.43
65378;SHT31;51982;51.042;13.806;2022-11-20T14:00:57;3.81;77.68
65378;SHT31;51982;51.042;13.806;2022-11-20T14:03:24;3.92;77.60
65378;SHT31;51982;51.042;13.806;2022-11-20T14:05:59;3.82;77.34
65378;SHT31;51982;51.042;13.806;2022-11-20T14:08:39;3.83;77.44
65378;SHT31;51982;51.042;13.806;2022-11-20T14:13:59;3.87;77.08
65378;SHT31;51982;51.042;13.806;2022-11-20T14:16:27;3.92;76.83
65378;SHT31;51982;51.042;13.806;2022-11-20T14:18:54;3.93;76.70
65378;SHT31;51982;51.042;13.806;2022-11-20T14:21:28;3.87;76.53
65378;SHT31;51982;51.042;13.806;2022-11-20T14:24:18;3.83;76.68
65378;SHT31;51982;51.042;13.806;2022-11-20T14:26:45;3.82;76.70
65378;SHT31;51982;51.042;13.806;2022-11-20T14:29:21;3.85;76.69
65378;SHT31;51982;51.042;13.806;2022-11-20T14:31:50;3.81;76.69
65378;SHT31;51982;51.042;13.806;2022-11-20T14:34:19;3.83;76.73
65378;SHT31;51982;51.042;13.806;2022-11-20T14:36:45;3.92;78.44
65378;SHT31;51982;51.042;13.806;2022-11-20T14:39:19;3.92;77.04
65378;SHT31;51982;51.042;13.806;2022-11-20T14:41:53;3.90;76.88
65378;SHT31;51982;51.042;13.806;2022-11-20T14:44:23;3.85;76.17
65378;SHT31;51982;51.042;13.806;2022-11-20T14:46:51;3.85;76.46
65378;SHT31;51982;51.042;13.806;2022-11-20T14:49:17;3.82;76.78
65378;SHT31;51982;51.042;13.806;2022-11-20T14:51:43;3.83;76.83
65378;SHT31;51982;51.042;13.806;2022-11-20T14:54:18;3.69;76.79
65378;SHT31;51982;51.042;13.806;2022-11-20T14:56:56;3.65;76.82
65378;SHT31;51982;51.042;13.806;2022-11-20T14:59:26;3.65;77.03
65378;SHT31;51982;51.042;13.806;2022-11-20T15:02:18;3.59;77.12
65378;SHT31;51982;51.042;13.806;2022-11-20T15:04:48;3.51;77.33
65378;SHT31;51982;51.042;13.806;2022-11-20T15:07:37;3.43;77.36
65378;SHT31;51982;51.042;13.806;2022-11-20T15:10:07;3.36;77.43
65378;SHT31;51982;51.042;13.806;2022-11-20T15:12:40;3.30;77.61
65378;SHT31;51982;51.042;13.806;2022-11-20T15:15:06;3.28;77.87
65378;SHT31;51982;51.042;13.806;2022-11-20T15:17:37;3.24;77.75
65378;SHT31;51982;51.042;13.806;2022-11-20T15:20:08;3.18;77.89
65378;SHT31;51982;51.042;13.806;2022-11-20T15:22:35;3.17;77.98
65378;SHT31;51982;51.042;13.806;2022-11-20T15:25:00;3.12;78.07
65378;SHT31;51982;51.042;13.806;2022-11-20T15:27:25;3.14;78.07
65378;SHT31;51982;51.042;13.806;2022-11-20T15:29:50;3.08;78.23
65378;SHT31;51982;51.042;13.806;2022-11-20T15:32:15;3.05;78.19
65378;SHT31;51982;51.042;13.806;2022-11-20T15:34:41;3.05;78.16
65378;SHT31;51982;51.042;13.806;2022-11-20T15:37:06;3.07;78.24
65378;SHT31;51982;51.042;13.806;2022-11-20T15:39:31;3.07;78.23
65378;SHT31;51982;51.042;13.806;2022-11-20T15:41:57;3.05;78.22
65378;SHT31;51982;51.042;13.806;2022-11-20T15:44:22;3.01;78.41
65378;SHT31;51982;51.042;13.806;2022-11-20T15:46:47;2.94;78.55
65378;SHT31;51982;51.042;13.806;2022-11-20T15:49:14;2.94;78.55
65378;SHT31;51982;51.042;13.806;2022-11-20T15:51:43;2.93;78.68
65378;SHT31;51982;51.042;13.806;2022-11-20T15:54:17;2.90;78.75
65378;SHT31;51982;51.042;13.806;2022-11-20T15:56:44;2.90;78.78
65378;SHT31;51982;51.042;13.806;2022-11-20T15:59:10;2.86;78.75
65378;SHT31;51982;51.042;13.806;2022-11-20T16:01:35;2.83;78.76
65378;SHT31;51982;51.042;13.806;2022-11-20T16:04:01;2.77;79.16
65378;SHT31;51982;51.042;13.806;2022-11-20T16:06:26;2.79;79.09
65378;SHT31;51982;51.042;13.806;2022-11-20T16:08:51;2.79;79.04
65378;SHT31;51982;51.042;13.806;2022-11-20T16:11:17;2.73;79.12
65378;SHT31;51982;51.042;13.806;2022-11-20T16:13:43;2.75;79.11
65378;SHT31;51982;51.042;13.806;2022-11-20T16:16:29;2.72;79.11
65378;SHT31;51982;51.042;13.806;2022-11-20T16:18:56;2.72;79.39
65378;SHT31;51982;51.042;13.806;2022-11-20T16:21:22;2.72;79.44
65378;SHT31;51982;51.042;13.806;2022-11-20T16:24:04;2.66;79.43
65378;SHT31;51982;51.042;13.806;2022-11-20T16:26:29;2.66;79.87
65378;SHT31;51982;51.042;13.806;2022-11-20T16:28:55;2.66;79.67
65378;SHT31;51982;51.042;13.806;2022-11-20T16:31:20;2.64;79.75
65378;SHT31;51982;51.042;13.806;2022-11-20T16:33:54;2.59;79.60
65378;SHT31;51982;51.042;13.806;2022-11-20T16:36:21;2.59;79.75
65378;SHT31;51982;51.042;13.806;2022-11-20T16:38:51;2.54;79.66
65378;SHT31;51982;51.042;13.806;2022-11-20T16:41:17;2.54;79.81
65378;SHT31;51982;51.042;13.806;2022-11-20T16:43:46;2.53;79.84